createdAt,value
2018-11-14T00:00:48.111Z,8.61
2018-11-14T00:03:29.648Z,8.58
2018-11-14T00:06:11.339Z,8.62
2018-11-14T00:08:53.649Z,8.61
2018-11-14T00:11:36.070Z,8.60
2018-11-14T00:14:18.160Z,8.56
2018-11-14T00:17:00.117Z,8.57
2018-11-14T00:19:42.321Z,8.52
2018-11-14T00:22:25.388Z,8.50
2018-11-14T00:25:07.521Z,8.39
2018-11-14T00:27:49.922Z,8.40
2018-11-14T00:30:32.229Z,8.30
2018-11-14T00:33:14.667Z,8.24
2018-11-14T00:35:55.997Z,8.14
2018-11-14T00:38:37.577Z,8.19
2018-11-14T00:41:19.897Z,8.17
2018-11-14T00:44:02.620Z,8.08
2018-11-14T00:46:45.132Z,8.06
2018-11-14T00:49:27.949Z,8.11
2018-11-14T00:52:09.520Z,8.10
2018-11-14T00:54:51.323Z,8.10
2018-11-14T00:57:34.223Z,8.05
2018-11-14T01:00:17.589Z,8.02
2018-11-14T01:02:59.851Z,8.03
2018-11-14T01:05:43.110Z,8.01
2018-11-14T01:08:24.905Z,7.90
2018-11-14T01:11:06.504Z,7.83
2018-11-14T01:13:48.584Z,7.81
2018-11-14T01:16:30.678Z,7.87
2018-11-14T01:19:13.504Z,7.85
2018-11-14T01:21:57.546Z,7.81
2018-11-14T01:24:39.361Z,7.82
2018-11-14T01:27:21.615Z,7.70
2018-11-14T01:30:04.542Z,7.69
2018-11-14T01:32:47.337Z,7.64
2018-11-14T01:35:28.953Z,7.66
2018-11-14T01:38:11.005Z,7.60
2018-11-14T01:40:53.348Z,7.64
2018-11-14T01:43:35.344Z,7.67
2018-11-14T01:46:18.377Z,7.55
2018-11-14T01:49:00.469Z,7.51
2018-11-14T01:51:42.405Z,7.48
2018-11-14T01:54:24.988Z,7.52
2018-11-14T01:57:07.097Z,7.53
2018-11-14T01:59:49.737Z,7.55
2018-11-14T02:02:32.943Z,7.57
2018-11-14T02:05:14.713Z,7.54
2018-11-14T02:07:57.064Z,7.51
2018-11-14T02:10:39.425Z,7.50
2018-11-14T02:13:21.240Z,7.48
2018-11-14T02:16:03.658Z,7.41
2018-11-14T02:18:45.833Z,7.50
2018-11-14T02:21:28.004Z,7.43
2018-11-14T02:24:10.606Z,7.39
2018-11-14T02:26:53.541Z,7.39
2018-11-14T02:29:35.256Z,7.37
2018-11-14T02:32:17.381Z,7.32
2018-11-14T02:35:00.178Z,7.34
2018-11-14T02:37:43.381Z,7.33
2018-11-14T02:40:25.231Z,7.41
2018-11-14T02:43:08.770Z,7.36
2018-11-14T02:45:51.163Z,7.35
2018-11-14T02:48:33.234Z,7.32
2018-11-14T02:51:25.535Z,7.34
2018-11-14T02:54:07.485Z,7.36
2018-11-14T02:56:49.386Z,7.37
2018-11-14T02:59:31.915Z,7.35
2018-11-14T03:02:18.208Z,7.39
2018-11-14T03:05:00.761Z,7.35
2018-11-14T03:07:43.289Z,7.22
2018-11-14T03:10:25.730Z,7.22
2018-11-14T03:13:08.035Z,7.16
2018-11-14T03:15:50.851Z,7.22
2018-11-14T03:18:32.951Z,7.23
2018-11-14T03:21:14.665Z,7.32
2018-11-14T03:23:57.379Z,7.41
2018-11-14T03:26:39.469Z,7.33
2018-11-14T03:29:21.257Z,7.24
2018-11-14T03:32:04.237Z,7.29
2018-11-14T03:34:46.475Z,7.28
2018-11-14T03:37:28.801Z,7.24
2018-11-14T03:40:13.236Z,7.25
2018-11-14T03:42:55.642Z,7.35
2018-11-14T03:45:37.537Z,7.26
2018-11-14T03:48:19.639Z,7.22
2018-11-14T03:51:01.425Z,7.33
2018-11-14T03:53:43.345Z,7.40
2018-11-14T03:56:27.684Z,7.31
2018-11-14T03:59:10.280Z,7.34
2018-11-14T04:01:53.016Z,7.43
2018-11-14T04:04:35.861Z,7.39
2018-11-14T04:07:17.921Z,7.35
2018-11-14T04:10:00.149Z,7.23
2018-11-14T04:12:42.385Z,7.18
2018-11-14T04:15:24.638Z,7.13
2018-11-14T04:18:07.245Z,7.19
2018-11-14T04:20:49.780Z,7.21
2018-11-14T04:23:31.860Z,7.28
2018-11-14T04:26:13.881Z,7.28
2018-11-14T04:28:56.470Z,7.25
2018-11-14T04:31:38.570Z,7.15
2018-11-14T04:34:21.273Z,7.21
2018-11-14T04:37:04.185Z,7.20
2018-11-14T04:39:46.168Z,7.35
2018-11-14T04:42:27.812Z,7.33
2018-11-14T04:45:15.628Z,7.38
2018-11-14T04:47:58.112Z,7.33
2018-11-14T04:50:40.630Z,7.22
2018-11-14T04:53:22.779Z,7.26
2018-11-14T04:56:04.890Z,7.25
2018-11-14T04:58:46.559Z,7.24
2018-11-14T05:01:29.221Z,7.14
2018-11-14T05:04:11.225Z,7.10
2018-11-14T05:06:53.545Z,7.01
2018-11-14T05:09:36.345Z,7.02
2018-11-14T05:12:17.846Z,7.20
2018-11-14T05:14:59.975Z,7.18
2018-11-14T05:17:42.698Z,7.23
2018-11-14T05:20:24.982Z,7.20
2018-11-14T05:23:07.313Z,7.30
2018-11-14T05:25:50.932Z,7.35
2018-11-14T05:28:33.210Z,7.25
2018-11-14T05:31:14.975Z,7.30
2018-11-14T05:33:57.721Z,7.24
2018-11-14T05:36:39.292Z,7.28
2018-11-14T05:39:21.328Z,7.32
2018-11-14T05:42:04.085Z,7.29
2018-11-14T05:44:46.380Z,7.26
2018-11-14T05:47:28.922Z,7.21
2018-11-14T05:50:13.558Z,7.24
2018-11-14T05:52:56.529Z,7.14
2018-11-14T05:55:39.058Z,7.07
2018-11-14T05:58:22.073Z,7.03
2018-11-14T06:01:03.628Z,7.02
2018-11-14T06:03:45.245Z,7.00
2018-11-14T06:06:27.739Z,7.05
2018-11-14T06:09:10.742Z,6.91
2018-11-14T06:11:52.835Z,6.92
2018-11-14T06:14:34.261Z,6.89
2018-11-14T06:17:16.231Z,6.89
2018-11-14T06:19:58.274Z,6.93
2018-11-14T06:22:40.240Z,6.92
2018-11-14T06:25:30.977Z,7.04
2018-11-14T06:28:12.660Z,6.99
2018-11-14T06:30:55.010Z,7.11
2018-11-14T06:33:36.864Z,7.09
2018-11-14T06:39:28.476Z,6.97
2018-11-14T06:42:10.389Z,6.99
2018-11-14T06:44:52.579Z,7.07
2018-11-14T06:47:34.879Z,7.05
2018-11-14T06:50:16.589Z,6.99
2018-11-14T06:53:06.974Z,7.03
2018-11-14T06:55:48.696Z,7.05
2018-11-14T06:58:30.261Z,7.04
2018-11-14T07:01:12.345Z,7.04
2018-11-14T07:03:54.577Z,7.12
2018-11-14T07:06:36.442Z,7.09
2018-11-14T07:09:18.538Z,7.02
2018-11-14T07:12:00.978Z,7.20
2018-11-14T07:14:42.639Z,7.14
2018-11-14T07:17:25.047Z,7.13
2018-11-14T07:20:15.373Z,7.19
2018-11-14T07:22:57.471Z,7.12
2018-11-14T07:25:39.757Z,7.14
2018-11-14T07:28:21.242Z,7.18
2018-11-14T07:31:03.804Z,7.22
2018-11-14T07:33:46.246Z,7.25
2018-11-14T07:36:28.734Z,7.45
2018-11-14T07:39:11.192Z,7.50
2018-11-14T07:41:53.563Z,7.49
2018-11-14T07:44:35.179Z,7.49
2018-11-14T07:47:16.892Z,7.46
2018-11-14T07:49:59.307Z,7.60
2018-11-14T07:52:41.043Z,7.70
2018-11-14T07:55:23.600Z,7.95
2018-11-14T07:58:05.898Z,8.68
2018-11-14T08:00:47.697Z,9.45
2018-11-14T08:03:29.903Z,10.03
2018-11-14T08:06:12.311Z,10.88
2018-11-14T08:08:54.102Z,11.42
2018-11-14T08:11:36.610Z,11.38
2018-11-14T08:14:19.234Z,10.76
2018-11-14T08:17:01.244Z,11.28
2018-11-14T08:19:44.067Z,10.96
2018-11-14T08:22:25.626Z,11.30
2018-11-14T08:25:09.498Z,10.77
2018-11-14T08:27:51.840Z,10.56
2018-11-14T08:30:34.065Z,10.02
2018-11-14T08:33:16.237Z,10.07
2018-11-14T08:35:58.454Z,10.24
2018-11-14T08:38:39.816Z,9.78
2018-11-14T08:41:22.414Z,10.40
2018-11-14T08:44:04.513Z,10.59
2018-11-14T08:46:46.754Z,10.28
2018-11-14T08:49:29.048Z,10.07
2018-11-14T08:52:11.150Z,9.65
2018-11-14T08:54:53.592Z,9.78
2018-11-14T08:57:36.410Z,9.75
2018-11-14T09:00:20.730Z,9.59
2018-11-14T09:03:03.170Z,10.09
2018-11-14T09:05:45.443Z,9.94
2018-11-14T09:08:27.536Z,10.00
2018-11-14T09:11:09.695Z,9.98
2018-11-14T09:13:51.476Z,9.92
2018-11-14T09:16:34.701Z,9.95
2018-11-14T09:19:16.362Z,10.13
2018-11-14T09:21:58.669Z,10.30
2018-11-14T09:24:40.668Z,10.57
2018-11-14T09:27:22.562Z,10.96
2018-11-14T09:30:05.655Z,12.21
2018-11-14T09:32:47.664Z,12.93
2018-11-14T09:35:29.540Z,12.91
2018-11-14T09:38:12.182Z,13.16
2018-11-14T09:40:55.951Z,13.21
2018-11-14T09:43:38.039Z,13.37
2018-11-14T09:46:20.061Z,12.90
2018-11-14T09:49:01.806Z,13.41
2018-11-14T09:51:43.318Z,13.28
2018-11-14T09:54:25.316Z,14.28
2018-11-14T09:57:08.747Z,14.43
2018-11-14T09:59:50.661Z,14.03
2018-11-14T10:02:32.969Z,14.22
2018-11-14T10:05:16.633Z,13.62
2018-11-14T10:07:59.350Z,13.85
2018-11-14T10:10:41.628Z,14.78
2018-11-14T10:13:24.599Z,13.87
2018-11-14T10:16:06.443Z,14.21
2018-11-14T10:18:48.217Z,14.96
2018-11-14T10:21:31.107Z,14.20
2018-11-14T10:24:13.589Z,14.17
2018-11-14T10:26:55.877Z,14.07
2018-11-14T10:29:38.890Z,14.31
2018-11-14T10:32:20.750Z,13.73
2018-11-14T10:35:02.350Z,14.28
2018-11-14T10:37:44.680Z,14.92
2018-11-14T10:40:27.508Z,14.63
2018-11-14T10:43:09.166Z,15.05
2018-11-14T10:45:51.147Z,14.73
2018-11-14T10:48:33.083Z,14.30
2018-11-14T10:51:14.641Z,15.39
2018-11-14T10:53:56.316Z,15.15
2018-11-14T10:56:37.686Z,14.17
2018-11-14T10:59:20.325Z,14.21
2018-11-14T11:02:08.405Z,14.46
2018-11-14T11:04:55.552Z,15.02
2018-11-14T11:07:43.253Z,14.81
2018-11-14T11:10:30.609Z,14.58
2018-11-14T11:13:18.029Z,15.09
2018-11-14T11:16:41.467Z,15.57
2018-11-14T11:19:26.028Z,14.45
2018-11-14T11:22:07.708Z,14.01
2018-11-14T11:24:50.023Z,13.84
2018-11-14T11:27:32.727Z,13.71
2018-11-14T11:30:15.006Z,13.94
2018-11-14T11:32:56.625Z,13.68
2018-11-14T11:35:42.756Z,14.06
2018-11-14T11:38:25.893Z,13.19
2018-11-14T11:41:08.771Z,13.45
2018-11-14T11:43:50.941Z,13.51
2018-11-14T11:46:32.894Z,13.34
2018-11-14T11:49:15.309Z,13.52
2018-11-14T11:51:57.470Z,13.90
2018-11-14T11:54:38.916Z,13.47
2018-11-14T11:57:20.636Z,13.55
2018-11-14T12:00:03.341Z,13.25
2018-11-14T12:02:46.084Z,13.71
2018-11-14T12:05:27.964Z,14.53
2018-11-14T12:08:16.228Z,14.64
2018-11-14T12:11:05.650Z,14.36
2018-11-14T12:13:48.783Z,14.64
2018-11-14T12:16:31.210Z,15.03
2018-11-14T12:19:14.166Z,14.69
2018-11-14T12:21:55.822Z,14.36
2018-11-14T12:24:38.457Z,14.33
2018-11-14T12:27:20.865Z,14.33
2018-11-14T12:30:02.569Z,14.28
2018-11-14T12:32:44.855Z,14.61
2018-11-14T12:35:26.483Z,14.62
2018-11-14T12:38:09.042Z,14.97
2018-11-14T12:40:51.049Z,14.45
2018-11-14T12:43:41.459Z,14.94
2018-11-14T12:46:36.596Z,14.99
2018-11-14T12:49:19.156Z,15.74
2018-11-14T12:52:01.290Z,15.67
2018-11-14T12:54:43.661Z,15.58
2018-11-14T12:57:25.684Z,15.33
2018-11-14T13:00:09.656Z,15.26
2018-11-14T13:02:55.264Z,14.21
2018-11-14T13:05:44.791Z,15.12
2018-11-14T13:08:26.636Z,15.75
2018-11-14T13:11:08.456Z,14.62
2018-11-14T13:13:50.144Z,15.65
2018-11-14T13:16:32.444Z,15.65
2018-11-14T13:19:14.055Z,14.99
2018-11-14T13:21:55.835Z,15.65
2018-11-14T13:24:37.932Z,16.39
2018-11-14T13:27:19.809Z,15.83
2018-11-14T13:30:02.437Z,14.39
2018-11-14T13:32:45.338Z,15.15
2018-11-14T13:35:27.250Z,15.49
2018-11-14T13:38:08.729Z,14.96
2018-11-14T13:40:50.410Z,15.84
2018-11-14T13:43:31.892Z,15.40
2018-11-14T13:46:13.468Z,16.14
2018-11-14T13:48:55.296Z,16.08
2018-11-14T13:51:37.405Z,15.32
2018-11-14T13:54:18.670Z,14.74
2018-11-14T13:57:01.313Z,15.33
2018-11-14T13:59:43.517Z,14.66
2018-11-14T14:02:25.894Z,15.09
2018-11-14T14:05:10.619Z,14.94
2018-11-14T14:07:53.011Z,15.33
2018-11-14T14:10:35.480Z,15.79
2018-11-14T14:13:17.194Z,15.70
2018-11-14T14:15:58.307Z,14.50
2018-11-14T14:18:40.657Z,14.53
2018-11-14T14:21:22.830Z,14.07
2018-11-14T14:24:04.554Z,14.29
2018-11-14T14:26:46.844Z,14.14
2018-11-14T14:29:28.361Z,13.89
2018-11-14T14:32:10.659Z,13.28
2018-11-14T14:34:51.930Z,13.37
2018-11-14T14:37:33.315Z,13.05
2018-11-14T14:40:17.994Z,13.08
2018-11-14T14:42:59.661Z,12.96
2018-11-14T14:45:41.646Z,13.09
2018-11-14T14:48:25.057Z,12.76
2018-11-14T14:51:07.929Z,12.81
2018-11-14T14:53:50.201Z,12.67
2018-11-14T14:56:32.804Z,12.57
2018-11-14T14:59:15.299Z,12.38
2018-11-14T15:02:01.378Z,12.43
2018-11-14T15:04:43.564Z,12.27
2018-11-14T15:07:25.649Z,12.24
2018-11-14T15:10:10.353Z,12.27
2018-11-14T15:12:52.834Z,11.84
2018-11-14T15:15:35.014Z,12.10
2018-11-14T15:18:17.100Z,12.02
2018-11-14T15:20:59.315Z,11.82
2018-11-14T15:23:40.711Z,11.79
2018-11-14T15:26:22.374Z,11.50
2018-11-14T15:29:04.268Z,11.40
2018-11-14T15:31:46.353Z,11.35
2018-11-14T15:34:29.731Z,11.25
2018-11-14T15:37:11.404Z,10.94
2018-11-14T15:39:53.184Z,10.77
2018-11-14T15:42:36.160Z,10.79
2018-11-14T15:45:20.642Z,10.43
2018-11-14T15:48:02.257Z,10.25
2018-11-14T15:50:43.953Z,10.07
2018-11-14T15:53:26.445Z,9.81
2018-11-14T15:56:08.593Z,9.74
2018-11-14T15:59:03.198Z,9.51
2018-11-14T16:01:46.792Z,9.45
2018-11-14T16:04:28.578Z,9.36
2018-11-14T16:07:11.074Z,9.36
2018-11-14T16:09:53.917Z,9.35
2018-11-14T16:12:36.777Z,9.29
2018-11-14T16:15:19.902Z,9.24
2018-11-14T16:18:02.038Z,9.05
2018-11-14T16:20:44.880Z,9.11
2018-11-14T16:23:26.966Z,9.13
2018-11-14T16:26:08.368Z,9.14
2018-11-14T16:28:51.394Z,9.42
2018-11-14T16:31:33.780Z,9.57
2018-11-14T16:34:15.909Z,9.53
2018-11-14T16:36:57.990Z,9.57
2018-11-14T16:42:33.469Z,9.38
2018-11-14T16:45:16.232Z,9.17
2018-11-14T16:47:58.087Z,9.03
2018-11-14T16:50:42.008Z,9.02
2018-11-14T16:53:24.116Z,9.03
2018-11-14T16:56:07.969Z,8.98
2018-11-14T16:58:49.842Z,8.89
2018-11-14T17:01:32.579Z,8.79
2018-11-14T17:04:14.349Z,8.72
2018-11-14T17:06:55.976Z,8.58
2018-11-14T17:09:38.357Z,8.41
2018-11-14T17:12:21.305Z,8.35
2018-11-14T17:15:05.569Z,8.46
2018-11-14T17:17:47.006Z,8.49
2018-11-14T17:20:30.238Z,8.56
2018-11-14T17:23:22.099Z,8.65
2018-11-14T17:26:05.033Z,8.66
2018-11-14T17:28:47.393Z,8.64
2018-11-14T17:31:29.049Z,8.55
2018-11-14T17:34:10.688Z,8.47
2018-11-14T17:36:52.381Z,8.40
2018-11-14T17:39:34.918Z,8.40
2018-11-14T17:42:18.035Z,8.35
2018-11-14T17:45:00.007Z,8.22
2018-11-14T17:47:43.192Z,8.24
2018-11-14T17:50:27.439Z,8.17
2018-11-14T17:53:09.484Z,8.18
2018-11-14T17:55:51.046Z,8.19
2018-11-14T17:58:33.529Z,8.10
2018-11-14T18:01:15.172Z,8.12
2018-11-14T18:03:56.622Z,8.11
2018-11-14T18:06:39.649Z,8.07
2018-11-14T18:09:21.941Z,8.00
2018-11-14T18:12:04.478Z,7.89
2018-11-14T18:14:46.538Z,7.86
2018-11-14T18:17:28.356Z,7.81
2018-11-14T18:20:12.023Z,7.88
2018-11-14T18:22:55.618Z,7.81
2018-11-14T18:25:41.273Z,7.80
2018-11-14T18:28:23.454Z,7.69
2018-11-14T18:31:05.241Z,7.61
2018-11-14T18:33:47.818Z,7.49
2018-11-14T18:36:29.656Z,7.40
2018-11-14T18:39:13.148Z,7.42
2018-11-14T18:41:54.614Z,7.39
2018-11-14T18:44:36.800Z,7.35
2018-11-14T18:47:19.358Z,7.32
2018-11-14T18:50:02.281Z,7.29
2018-11-14T18:52:44.417Z,7.17
2018-11-14T18:55:28.707Z,7.10
2018-11-14T18:58:11.370Z,7.09
2018-11-14T19:00:53.749Z,7.04
2018-11-14T19:03:36.406Z,6.98
2018-11-14T19:06:18.788Z,7.00
2018-11-14T19:09:02.118Z,6.97
2018-11-14T19:11:43.914Z,6.91
2018-11-14T19:14:26.189Z,6.88
2018-11-14T19:17:08.645Z,6.91
2018-11-14T19:19:50.923Z,6.88
2018-11-14T19:22:33.120Z,6.85
2018-11-14T19:25:17.280Z,6.83
2018-11-14T19:27:59.461Z,6.77
2018-11-14T19:30:43.098Z,6.73
2018-11-14T19:33:25.609Z,6.74
2018-11-14T19:36:07.907Z,6.71
2018-11-14T19:38:50.630Z,6.64
2018-11-14T19:41:33.681Z,6.59
2018-11-14T19:44:16.060Z,6.61
2018-11-14T19:46:59.212Z,6.61
2018-11-14T19:49:41.286Z,6.67
2018-11-14T19:52:23.571Z,6.70
2018-11-14T19:55:06.331Z,6.66
2018-11-14T19:57:49.941Z,6.68
2018-11-14T20:00:35.626Z,6.70
2018-11-14T20:03:17.973Z,6.70
2018-11-14T20:05:59.945Z,6.68
2018-11-14T20:08:44.198Z,6.63
2018-11-14T20:11:26.994Z,6.62
2018-11-14T20:14:08.906Z,6.61
2018-11-14T20:16:51.605Z,6.55
2018-11-14T20:19:33.473Z,6.55
2018-11-14T20:22:16.127Z,6.58
2018-11-14T20:24:58.829Z,6.56
2018-11-14T20:27:41.647Z,6.49
2018-11-14T20:30:25.216Z,6.47
2018-11-14T20:33:11.805Z,6.47
2018-11-14T20:35:53.916Z,6.44
2018-11-14T20:38:37.321Z,6.44
2018-11-14T20:41:20.552Z,6.41
2018-11-14T20:44:02.643Z,6.35
2018-11-14T20:46:45.662Z,6.28
2018-11-14T20:49:28.481Z,6.27
2018-11-14T20:52:12.811Z,6.23
2018-11-14T20:54:54.330Z,6.23
2018-11-14T20:57:37.857Z,6.16
2018-11-14T21:00:23.585Z,6.11
2018-11-14T21:03:06.524Z,6.09
2018-11-14T21:05:49.090Z,6.03
2018-11-14T21:08:31.068Z,6.00
2018-11-14T21:11:14.297Z,5.96
2018-11-14T21:13:57.214Z,6.00
2018-11-14T21:16:39.313Z,5.96
2018-11-14T21:19:22.997Z,5.98
2018-11-14T21:22:06.086Z,6.02
2018-11-14T21:24:48.737Z,5.94
2018-11-14T21:27:32.229Z,6.05
2018-11-14T21:30:16.162Z,6.00
2018-11-14T21:32:58.263Z,5.94
2018-11-14T21:35:40.371Z,5.94
2018-11-14T21:38:26.104Z,5.94
2018-11-14T21:41:09.046Z,5.88
2018-11-14T21:43:51.906Z,5.82
2018-11-14T21:46:34.288Z,5.81
2018-11-14T21:49:22.950Z,5.78
2018-11-14T21:52:05.666Z,5.79
2018-11-14T21:54:48.244Z,5.79
2018-11-14T21:57:30.260Z,5.86
2018-11-14T22:00:18.677Z,5.88
2018-11-14T22:03:01.029Z,5.87
2018-11-14T22:05:43.901Z,5.80
2018-11-14T22:08:26.450Z,5.81
2018-11-14T22:11:08.733Z,5.73
2018-11-14T22:13:51.198Z,5.70
2018-11-14T22:18:52.602Z,5.57
2018-11-14T22:21:34.858Z,5.50
2018-11-14T22:24:17.442Z,5.46
2018-11-14T22:26:59.860Z,5.43
2018-11-14T22:29:42.390Z,5.39
2018-11-14T22:32:24.665Z,5.37
2018-11-14T22:35:08.735Z,5.35
2018-11-14T22:37:50.829Z,5.34
2018-11-14T22:40:33.329Z,5.27
2018-11-14T22:43:15.408Z,5.25
2018-11-14T22:45:57.101Z,5.18
2018-11-14T22:48:39.113Z,5.20
2018-11-14T22:51:21.649Z,5.17
2018-11-14T22:54:03.853Z,5.15
2018-11-14T22:56:46.078Z,5.16
2018-11-14T22:59:28.845Z,5.23
2018-11-14T23:02:11.066Z,5.24
2018-11-14T23:04:54.382Z,5.21
2018-11-14T23:07:37.422Z,5.25
2018-11-14T23:10:20.754Z,5.26
2018-11-14T23:13:02.949Z,5.27
2018-11-14T23:15:45.580Z,5.27
2018-11-14T23:18:27.960Z,5.19
2018-11-14T23:21:09.872Z,5.16
2018-11-14T23:23:51.750Z,5.17
2018-11-14T23:26:34.910Z,5.18
2018-11-14T23:29:17.709Z,5.25
2018-11-14T23:31:59.670Z,5.24
2018-11-14T23:34:47.112Z,5.23
2018-11-14T23:37:28.598Z,5.17
2018-11-14T23:43:54.956Z,5.01
2018-11-14T23:46:38.258Z,4.94
2018-11-14T23:49:19.917Z,4.95
2018-11-14T23:52:02.782Z,4.94
2018-11-14T23:54:45.081Z,4.93
2018-11-14T23:57:28.016Z,4.85
